Time;durP1;ratioP1;P1;durP2;ratioP2;P2;SDS_P1;SDS_P2;PMS_P1;PMS_P2;Temp;Humidity;BMP_temperature;BMP_pressure;BME280_temperature;BME280_humidity;BME280_pressure;Samples;Min_cycle;Max_cycle;Signal;HPM_P1;HPM_P2
2022/12/31 00:00:46;;;;;;;2.40;2.20;;;18.40;54.70;;;;;;5065851;28;45202;-78
2022/12/31 00:03:13;;;;;;;3.60;2.70;;;18.40;54.70;;;;;;5066329;27;45369;-78
2022/12/31 00:05:41;;;;;;;2.67;2.42;;;18.40;54.70;;;;;;5066871;28;45289;-78
2022/12/31 00:08:08;;;;;;;3.03;2.55;;;18.40;54.70;;;;;;5066398;27;45297;-77
2022/12/31 00:10:40;;;;;;;2.92;2.25;;;18.40;54.60;;;;;;5066558;28;45186;-78
2022/12/31 00:13:07;;;;;;;2.40;2.20;;;18.50;54.70;;;;;;5066825;28;45201;-77
2022/12/31 00:15:34;;;;;;;2.67;2.47;;;18.50;54.70;;;;;;5066987;27;45117;-77
2022/12/31 00:18:00;;;;;;;2.75;2.50;;;18.50;54.60;;;;;;5066184;28;45218;-78
2022/12/31 00:20:27;;;;;;;2.63;2.42;;;18.50;54.70;;;;;;5066771;28;45277;-77
2022/12/31 00:22:55;;;;;;;2.70;2.50;;;18.40;55.20;;;;;;5065959;28;45369;-78
2022/12/31 00:25:22;;;;;;;3.03;2.55;;;18.50;54.60;;;;;;5066197;28;45355;-78
2022/12/31 00:27:49;;;;;;;2.75;2.50;;;18.50;54.70;;;;;;5066189;28;45215;-78
2022/12/31 00:30:16;;;;;;;2.88;2.67;;;18.50;54.60;;;;;;5066524;28;45210;-78
2022/12/31 00:32:43;;;;;;;3.25;2.60;;;18.50;54.60;;;;;;5066276;28;45417;-78
2022/12/31 00:35:09;;;;;;;2.65;2.40;;;18.50;54.60;;;;;;5066140;28;45452;-77
2022/12/31 00:37:36;;;;;;;2.53;2.33;;;18.50;54.60;;;;;;5065373;27;45659;-74
2022/12/31 00:40:05;;;;;;;2.80;2.50;;;18.50;54.60;;;;;;5065720;28;45129;-77
2022/12/31 00:42:32;;;;;;;3.03;2.65;;;18.50;54.60;;;;;;5065138;28;45398;-77
2022/12/31 00:44:59;;;;;;;2.67;2.47;;;18.50;54.60;;;;;;5066045;28;45373;-78
2022/12/31 00:47:26;;;;;;;2.67;2.47;;;18.50;54.60;;;;;;5065766;28;46712;-78
2022/12/31 00:49:53;;;;;;;2.60;2.40;;;18.50;54.60;;;;;;5065705;28;45269;-78
2022/12/31 00:52:19;;;;;;;2.55;2.30;;;18.50;54.60;;;;;;5065288;28;45314;-79
2022/12/31 00:54:46;;;;;;;2.78;2.42;;;18.50;54.60;;;;;;5065946;28;45264;-78
2022/12/31 00:57:14;;;;;;;2.65;2.45;;;18.50;54.60;;;;;;5065126;28;46722;-78
2022/12/31 00:59:41;;;;;;;2.80;2.58;;;18.50;54.60;;;;;;5065155;28;45317;-78
2022/12/31 01:02:08;;;;;;;2.78;2.35;;;18.60;54.70;;;;;;5065088;28;45198;-78
2022/12/31 01:04:35;;;;;;;2.90;2.58;;;18.60;54.70;;;;;;5065621;28;45409;-78
2022/12/31 01:07:02;;;;;;;2.60;2.40;;;18.60;54.70;;;;;;5064956;28;45240;-78
2022/12/31 01:09:28;;;;;;;3.03;2.60;;;18.60;54.60;;;;;;5065146;28;45275;-79
2022/12/31 01:11:55;;;;;;;2.58;2.38;;;18.50;54.60;;;;;;5065195;28;45313;-78
2022/12/31 01:14:23;;;;;;;3.13;2.45;;;18.50;54.50;;;;;;5065214;28;45342;-78
2022/12/31 01:16:51;;;;;;;2.70;2.50;;;18.60;54.60;;;;;;5065077;28;46872;-78
2022/12/31 01:19:19;;;;;;;3.03;2.55;;;18.50;54.60;;;;;;5064828;28;45261;-78
2022/12/31 01:21:46;;;;;;;2.50;2.30;;;18.60;54.60;;;;;;5064436;28;45317;-78
2022/12/31 01:24:13;;;;;;;3.15;2.55;;;18.60;54.60;;;;;;5065244;27;45238;-78
2022/12/31 01:26:40;;;;;;;2.95;2.63;;;18.60;54.60;;;;;;5064696;28;46372;-78
2022/12/31 01:29:07;;;;;;;2.80;2.60;;;18.60;54.60;;;;;;5065077;28;45216;-78
2022/12/31 01:31:35;;;;;;;3.00;2.70;;;18.60;54.60;;;;;;5062368;28;45331;-78
2022/12/31 01:34:02;;;;;;;2.92;2.65;;;18.50;54.50;;;;;;5065050;27;45288;-78
2022/12/31 01:36:31;;;;;;;2.88;2.60;;;18.60;54.60;;;;;;5064858;28;46371;-78
2022/12/31 01:38:58;;;;;;;3.03;2.72;;;18.60;54.60;;;;;;5064786;27;45194;-78
2022/12/31 01:41:26;;;;;;;2.67;2.42;;;18.60;54.50;;;;;;5064780;28;45150;-77
2022/12/31 01:43:54;;;;;;;3.03;2.63;;;18.60;54.60;;;;;;5064812;27;45423;-77
2022/12/31 01:46:25;;;;;;;3.60;2.78;;;18.60;54.50;;;;;;5064505;27;45287;-77
2022/12/31 01:48:54;;;;;;;3.08;2.65;;;18.60;54.50;;;;;;5064723;27;45282;-78
2022/12/31 01:51:21;;;;;;;3.15;2.70;;;18.60;54.50;;;;;;5064784;27;45226;-78
2022/12/31 01:53:48;;;;;;;2.78;2.58;;;18.60;54.50;;;;;;5064700;28;45412;-78
2022/12/31 01:56:15;;;;;;;2.97;2.60;;;18.60;54.50;;;;;;5064605;28;46396;-78
2022/12/31 01:58:43;;;;;;;2.85;2.53;;;18.60;54.50;;;;;;5064533;28;45236;-78
2022/12/31 02:01:10;;;;;;;3.10;2.60;;;18.60;54.50;;;;;;5064514;27;45140;-78
2022/12/31 02:03:36;;;;;;;3.17;2.63;;;18.60;54.50;;;;;;5064691;28;45251;-78
2022/12/31 02:06:07;;;;;;;2.28;2.08;;;18.70;54.50;;;;;;5064590;28;47401;-78
2022/12/31 02:08:34;;;;;;;2.63;2.42;;;18.60;54.50;;;;;;5064457;28;45255;-79
2022/12/31 02:11:01;;;;;;;3.38;2.42;;;18.60;54.50;;;;;;5063833;28;45481;-78
2022/12/31 02:13:28;;;;;;;2.70;2.50;;;18.60;54.60;;;;;;5064513;28;45285;-78
2022/12/31 02:15:57;;;;;;;2.72;2.50;;;18.60;54.50;;;;;;5064467;28;46790;-78
2022/12/31 02:18:28;;;;;;;2.85;2.60;;;18.60;54.50;;;;;;5064563;28;45351;-78
2022/12/31 02:21:18;;;;;;;2.70;2.30;;;18.60;54.50;;;;;;5064695;28;45327;-79
2022/12/31 02:24:15;;;;;;;2.70;2.50;;;18.70;54.50;;;;;;5064040;27;45240;-78
2022/12/31 02:26:55;;;;;;;3.38;2.15;;;18.70;54.50;;;;;;5042429;27;45471;-79
2022/12/31 02:29:58;;;;;;;3.25;2.50;;;18.70;54.50;;;;;;5063725;28;45345;-78
2022/12/31 02:32:30;;;;;;;2.53;2.05;;;18.70;54.50;;;;;;5064038;28;45419;-78
2022/12/31 02:34:57;;;;;;;2.75;2.50;;;18.70;54.50;;;;;;5064320;27;45187;-77
2022/12/31 02:37:24;;;;;;;2.45;2.20;;;18.70;55.10;;;;;;5063935;28;46396;-77
2022/12/31 02:39:51;;;;;;;3.00;2.45;;;18.70;54.50;;;;;;5064031;28;45282;-78
2022/12/31 02:42:18;;;;;;;3.10;2.60;;;18.70;55.10;;;;;;5063033;28;45306;-80
2022/12/31 02:44:45;;;;;;;2.50;2.30;;;18.70;54.50;;;;;;5063888;28;45294;-78
2022/12/31 02:47:18;;;;;;;2.80;2.50;;;18.70;54.50;;;;;;5063610;28;46755;-80
2022/12/31 02:49:50;;;;;;;2.45;2.08;;;18.70;54.50;;;;;;5063713;28;45311;-78
2022/12/31 02:52:20;;;;;;;3.00;2.25;;;18.70;54.60;;;;;;5063838;28;45259;-80
2022/12/31 02:54:50;;;;;;;2.45;2.25;;;18.70;54.50;;;;;;5063899;28;45136;-78
2022/12/31 02:57:20;;;;;;;2.35;2.15;;;18.70;54.50;;;;;;5063575;27;45243;-80
2022/12/31 03:02:34;;;;;;;2.45;2.25;;;18.70;54.50;;;;;;5060871;28;45287;-80
2022/12/31 03:05:02;;;;;;;2.40;2.20;;;18.70;54.50;;;;;;5064048;28;45260;-80
2022/12/31 03:07:30;;;;;;;2.17;2.00;;;18.70;54.40;;;;;;5066615;28;45239;-80
2022/12/31 03:09:57;;;;;;;2.90;2.22;;;18.70;54.50;;;;;;5066735;27;45264;-79
2022/12/31 03:15:18;;;;;;;2.50;2.30;;;18.70;54.40;;;;;;5064138;28;45199;-80
2022/12/31 03:17:46;;;;;;;2.30;2.10;;;18.70;54.40;;;;;;5066770;28;46965;-80
2022/12/31 03:22:58;;;;;;;2.35;2.05;;;18.80;54.50;;;;;;5064149;28;45383;-80
2022/12/31 03:25:34;;;;;;;2.45;2.25;;;18.70;54.40;;;;;;5066955;28;45218;-78
2022/12/31 03:28:01;;;;;;;2.25;2.05;;;18.70;54.40;;;;;;5066152;28;45510;-79
2022/12/31 03:30:28;;;;;;;2.50;1.95;;;18.80;54.50;;;;;;5066365;27;45145;-79
2022/12/31 03:32:56;;;;;;;2.65;1.95;;;18.80;54.40;;;;;;5066339;28;45241;-80
2022/12/31 03:35:24;;;;;;;2.25;2.05;;;18.80;54.40;;;;;;5066404;28;45581;-80
2022/12/31 03:37:51;;;;;;;2.60;2.30;;;18.80;54.50;;;;;;5066330;28;45221;-80
2022/12/31 03:40:19;;;;;;;2.22;2.03;;;18.80;54.50;;;;;;5066059;28;45190;-80
2022/12/31 03:42:45;;;;;;;2.63;2.00;;;18.80;54.40;;;;;;5066010;28;45408;-80
2022/12/31 03:45:12;;;;;;;2.35;2.15;;;18.80;54.40;;;;;;5066596;28;45387;-80
2022/12/31 03:47:39;;;;;;;2.30;2.10;;;18.70;54.40;;;;;;5066192;28;45290;-79
2022/12/31 03:50:07;;;;;;;2.28;2.08;;;18.80;54.40;;;;;;5066287;28;45129;-80
2022/12/31 03:52:35;;;;;;;2.47;2.20;;;18.70;54.30;;;;;;5066106;27;45198;-78
2022/12/31 03:55:02;;;;;;;1.85;1.75;;;18.80;54.40;;;;;;5065601;28;45295;-78
2022/12/31 03:57:29;;;;;;;2.15;1.95;;;18.70;54.30;;;;;;5065787;28;46272;-78
2022/12/31 03:59:55;;;;;;;2.08;1.92;;;18.80;54.40;;;;;;5065973;28;45379;-79
2022/12/31 04:02:22;;;;;;;2.25;2.08;;;18.80;54.40;;;;;;5066326;28;45167;-81
2022/12/31 04:04:49;;;;;;;2.17;1.98;;;18.80;54.40;;;;;;5066347;28;45109;-78
2022/12/31 04:07:16;;;;;;;2.40;2.10;;;18.70;54.30;;;;;;5065702;28;45353;-79
2022/12/31 04:09:44;;;;;;;2.03;1.83;;;18.80;54.40;;;;;;5065793;28;45332;-78
2022/12/31 04:12:11;;;;;;;1.80;1.70;;;18.70;54.30;;;;;;5066231;28;45353;-79
2022/12/31 04:14:37;;;;;;;1.67;1.50;;;18.80;54.40;;;;;;5066418;28;45399;-78
2022/12/31 04:17:04;;;;;;;1.80;1.70;;;18.70;54.30;;;;;;5064552;28;46653;-78
2022/12/31 04:19:31;;;;;;;2.10;1.90;;;18.70;54.30;;;;;;5065709;28;45247;-78
2022/12/31 04:21:58;;;;;;;2.00;1.90;;;18.70;54.30;;;;;;5065717;28;45217;-78
2022/12/31 04:24:25;;;;;;;1.90;1.80;;;18.70;54.30;;;;;;5066264;28;45352;-78
2022/12/31 04:26:53;;;;;;;3.70;1.90;;;18.70;54.40;;;;;;5065344;28;45396;-78
2022/12/31 04:29:20;;;;;;;2.00;1.80;;;18.70;54.40;;;;;;5065800;28;45332;-78
2022/12/31 04:31:46;;;;;;;1.85;1.75;;;18.70;54.40;;;;;;5065809;28;45345;-78
2022/12/31 04:34:13;;;;;;;2.08;1.90;;;18.70;54.40;;;;;;5065632;27;45564;-78
2022/12/31 04:36:40;;;;;;;2.35;2.15;;;18.70;54.40;;;;;;5064744;28;45427;-78
2022/12/31 04:39:07;;;;;;;2.17;2.00;;;18.70;54.30;;;;;;5065293;28;45178;-78
2022/12/31 04:41:34;;;;;;;1.75;1.65;;;18.70;54.40;;;;;;5065447;28;45113;-77
2022/12/31 04:44:02;;;;;;;1.80;1.70;;;18.70;54.30;;;;;;5065642;28;45169;-78
2022/12/31 04:46:30;;;;;;;1.80;1.70;;;18.70;54.30;;;;;;5065327;28;46697;-77
2022/12/31 04:48:57;;;;;;;1.77;1.67;;;18.70;54.40;;;;;;5065886;28;45202;-77
2022/12/31 04:51:24;;;;;;;2.00;1.80;;;18.70;54.30;;;;;;5065811;27;45238;-78
2022/12/31 04:53:51;;;;;;;2.00;1.80;;;18.70;54.40;;;;;;5065825;28;45218;-77
2022/12/31 04:56:18;;;;;;;1.60;1.48;;;18.70;54.30;;;;;;5065298;28;45230;-78
2022/12/31 04:58:45;;;;;;;2.08;1.80;;;18.70;54.40;;;;;;5065344;28;45243;-80
2022/12/31 05:01:13;;;;;;;1.67;1.55;;;18.70;54.90;;;;;;5065139;28;45289;-80
2022/12/31 05:03:40;;;;;;;1.70;1.60;;;18.70;54.40;;;;;;5065247;28;45331;-77
2022/12/31 05:06:11;;;;;;;1.63;1.52;;;18.70;54.30;;;;;;5064792;28;45178;-77
2022/12/31 05:08:37;;;;;;;2.08;1.70;;;18.70;54.30;;;;;;5065003;28;45345;-78
2022/12/31 05:11:04;;;;;;;1.40;1.30;;;18.70;54.30;;;;;;5064815;28;45289;-78
2022/12/31 05:13:31;;;;;;;1.40;1.30;;;18.70;54.30;;;;;;5065200;28;45269;-78
2022/12/31 05:15:58;;;;;;;1.75;1.65;;;18.70;54.30;;;;;;5065077;28;45208;-80
2022/12/31 05:18:26;;;;;;;1.50;1.40;;;18.70;54.30;;;;;;5065257;28;45300;-79
2022/12/31 05:20:53;;;;;;;1.88;1.70;;;18.70;54.30;;;;;;5064732;27;45231;-77
2022/12/31 05:23:19;;;;;;;1.73;1.63;;;18.70;54.30;;;;;;5065164;28;45283;-78
2022/12/31 05:25:47;;;;;;;1.50;1.40;;;18.70;54.30;;;;;;5064811;28;46651;-78
2022/12/31 05:28:13;;;;;;;1.70;1.60;;;18.70;54.30;;;;;;5064182;28;45403;-78
2022/12/31 05:30:40;;;;;;;1.65;1.55;;;18.70;54.30;;;;;;5065271;28;45351;-78
2022/12/31 05:33:07;;;;;;;1.52;1.42;;;18.70;54.30;;;;;;5065257;28;45362;-78
2022/12/31 05:35:35;;;;;;;1.83;1.65;;;18.70;54.30;;;;;;5064683;28;46435;-78
2022/12/31 05:38:02;;;;;;;1.73;1.63;;;18.70;54.30;;;;;;5065055;28;45249;-78
2022/12/31 05:40:29;;;;;;;1.55;1.45;;;18.70;54.30;;;;;;5064800;27;45219;-77
2022/12/31 05:42:56;;;;;;;1.75;1.60;;;18.70;54.30;;;;;;5064778;28;45371;-78
2022/12/31 05:45:28;;;;;;;1.58;1.48;;;18.70;54.30;;;;;;5064709;28;45555;-78
2022/12/31 05:47:55;;;;;;;1.60;1.50;;;18.80;54.20;;;;;;5065023;28;45257;-78
2022/12/31 05:50:21;;;;;;;1.60;1.50;;;18.90;54.10;;;;;;5064795;28;45330;-78
2022/12/31 05:52:49;;;;;;;1.50;1.40;;;19.00;53.90;;;;;;5064811;28;45232;-77
2022/12/31 05:55:16;;;;;;;1.73;1.60;;;19.00;53.80;;;;;;5064590;28;45212;-79
2022/12/31 05:57:43;;;;;;;1.40;1.30;;;19.00;53.70;;;;;;5064445;28;45338;-80
2022/12/31 06:00:11;;;;;;;1.60;1.50;;;19.10;53.60;;;;;;5064428;28;45423;-80
2022/12/31 06:02:38;;;;;;;1.50;1.40;;;19.10;53.50;;;;;;5064628;28;45449;-80
2022/12/31 06:05:05;;;;;;;1.50;1.40;;;19.10;53.40;;;;;;5064124;28;45195;-80
2022/12/31 06:07:32;;;;;;;1.48;1.38;;;19.20;53.30;;;;;;5063774;28;45169;-80
2022/12/31 06:10:00;;;;;;;1.80;1.40;;;19.20;53.30;;;;;;5064815;28;45257;-79
2022/12/31 06:12:27;;;;;;;1.35;1.25;;;19.20;53.20;;;;;;5064629;28;45368;-80
2022/12/31 06:14:54;;;;;;;1.48;1.38;;;19.20;53.20;;;;;;5064107;28;45313;-80
2022/12/31 06:17:21;;;;;;;1.60;1.17;;;19.20;53.10;;;;;;5064134;28;45228;-80
2022/12/31 06:19:48;;;;;;;1.48;1.38;;;19.20;53.10;;;;;;5064492;28;45252;-80
2022/12/31 06:22:14;;;;;;;1.40;1.30;;;19.20;53.10;;;;;;5064361;28;45353;-80
2022/12/31 06:24:42;;;;;;;1.40;1.30;;;19.20;53.10;;;;;;5064238;28;46411;-78
2022/12/31 06:27:10;;;;;;;1.42;1.33;;;19.30;53.10;;;;;;5063731;28;45172;-78
2022/12/31 06:29:37;;;;;;;1.40;1.30;;;19.20;53.00;;;;;;5064593;28;45245;-78
2022/12/31 06:32:04;;;;;;;1.55;1.45;;;19.20;52.90;;;;;;5064223;28;45324;-78
2022/12/31 06:34:31;;;;;;;1.55;1.45;;;19.20;52.90;;;;;;5064136;28;45490;-78
2022/12/31 06:36:58;;;;;;;1.80;1.70;;;19.20;52.90;;;;;;5064112;28;45298;-80
2022/12/31 06:39:25;;;;;;;1.45;1.35;;;19.20;53.00;;;;;;5063659;28;45226;-78
2022/12/31 06:41:51;;;;;;;1.40;1.30;;;19.20;53.00;;;;;;5063060;28;45330;-78
2022/12/31 06:44:21;;;;;;;1.42;1.33;;;19.20;53.00;;;;;;5063677;28;46776;-78
2022/12/31 06:46:48;;;;;;;1.60;1.50;;;19.20;52.90;;;;;;5064076;27;45255;-78
2022/12/31 06:49:14;;;;;;;1.00;1.00;;;19.20;53.00;;;;;;5063498;28;45265;-78
2022/12/31 06:51:44;;;;;;;1.50;1.40;;;19.20;52.90;;;;;;5063319;27;45351;-79
2022/12/31 06:54:11;;;;;;;1.02;1.02;;;19.20;53.00;;;;;;5063549;28;46636;-78
2022/12/31 06:56:39;;;;;;;1.40;1.30;;;19.20;53.00;;;;;;5063816;28;45285;-78
2022/12/31 06:59:06;;;;;;;1.35;1.25;;;19.20;53.00;;;;;;5063890;28;45191;-78
2022/12/31 07:01:50;;;;;;;1.30;1.20;;;19.10;53.00;;;;;;5063835;28;45259;-78
2022/12/31 07:04:37;;;;;;;1.33;1.23;;;19.10;53.60;;;;;;5063372;28;46584;-78
2022/12/31 07:07:07;;;;;;;1.20;1.10;;;19.10;53.00;;;;;;5063516;28;45230;-79
2022/12/31 07:09:37;;;;;;;1.50;1.33;;;19.10;53.00;;;;;;5063894;27;45289;-78
2022/12/31 07:12:06;;;;;;;1.00;1.00;;;19.10;53.10;;;;;;5063582;27;45386;-78
2022/12/31 07:14:34;;;;;;;1.40;1.30;;;19.10;53.10;;;;;;5063395;28;47413;-78
2022/12/31 07:17:06;;;;;;;1.60;1.50;;;19.10;53.10;;;;;;5063626;27;45208;-77
2022/12/31 07:19:40;;;;;;;1.15;1.15;;;19.00;53.10;;;;;;5063528;28;45327;-78
2022/12/31 07:22:08;;;;;;;0.90;0.90;;;19.10;53.20;;;;;;5063583;28;45411;-78
2022/12/31 07:24:35;;;;;;;1.45;1.35;;;19.10;53.20;;;;;;5063243;28;45616;-78
2022/12/31 07:27:09;;;;;;;1.38;1.27;;;19.00;53.20;;;;;;5063599;28;45142;-78
2022/12/31 07:29:42;;;;;;;1.42;1.10;;;19.00;53.20;;;;;;5063141;27;45257;-78
2022/12/31 07:32:15;;;;;;;1.38;1.27;;;19.00;53.20;;;;;;5063513;27;45512;-78
2022/12/31 07:34:43;;;;;;;1.20;1.10;;;19.00;53.30;;;;;;5063006;28;45240;-78
2022/12/31 07:37:13;;;;;;;1.20;1.10;;;19.00;53.30;;;;;;5062960;27;45196;-78
2022/12/31 07:39:43;;;;;;;1.27;1.15;;;19.00;53.30;;;;;;5063083;28;45321;-79
2022/12/31 07:42:14;;;;;;;1.30;1.20;;;19.00;53.30;;;;;;5063520;27;45435;-78
2022/12/31 07:44:51;;;;;;;1.30;1.20;;;19.00;53.40;;;;;;5062964;27;45514;-79
2022/12/31 07:47:22;;;;;;;1.30;1.05;;;19.00;53.40;;;;;;5062650;27;45230;-78
2022/12/31 07:49:49;;;;;;;1.02;1.00;;;19.00;53.40;;;;;;5062920;28;45197;-79
2022/12/31 07:52:17;;;;;;;1.20;1.10;;;18.90;53.40;;;;;;5064938;28;45461;-79
2022/12/31 07:54:44;;;;;;;0.98;0.98;;;18.90;53.40;;;;;;5066143;28;45552;-79
2022/12/31 07:57:11;;;;;;;1.05;1.05;;;18.90;53.40;;;;;;5066077;28;45229;-79
2022/12/31 07:59:45;;;;;;;0.90;0.90;;;18.90;53.40;;;;;;5066155;27;45326;-79
2022/12/31 08:02:15;;;;;;;1.60;1.10;;;18.90;53.40;;;;;;5066139;28;44733;-79
2022/12/31 08:04:48;;;;;;;1.00;0.98;;;18.90;53.40;;;;;;5066118;27;45301;-77
2022/12/31 08:07:18;;;;;;;0.98;0.98;;;18.90;53.40;;;;;;5065460;28;45487;-77
2022/12/31 08:09:49;;;;;;;1.20;1.05;;;18.90;53.40;;;;;;5065435;27;45216;-79
2022/12/31 08:12:16;;;;;;;1.23;1.13;;;18.90;53.40;;;;;;5065780;27;45402;-79
2022/12/31 08:14:44;;;;;;;1.00;1.00;;;18.90;53.40;;;;;;5065956;28;45232;-79
2022/12/31 08:17:13;;;;;;;1.05;1.00;;;18.90;53.40;;;;;;5065623;27;45229;-78
2022/12/31 08:19:40;;;;;;;0.90;0.90;;;18.90;53.40;;;;;;5066026;27;45276;-79
2022/12/31 08:22:20;;;;;;;1.10;1.00;;;18.90;53.40;;;;;;5066268;28;45305;-79
2022/12/31 08:24:53;;;;;;;0.90;0.90;;;18.90;53.50;;;;;;5066051;28;45444;-79
2022/12/31 08:27:23;;;;;;;1.23;1.10;;;18.90;53.40;;;;;;5067156;28;45205;-79
2022/12/31 08:29:55;;;;;;;0.95;0.90;;;18.90;53.40;;;;;;5066043;27;45257;-79
2022/12/31 08:32:23;;;;;;;0.95;0.90;;;18.90;53.40;;;;;;5066242;28;45176;-79
2022/12/31 08:34:55;;;;;;;0.88;0.88;;;18.90;53.40;;;;;;5065571;27;46682;-79
2022/12/31 08:37:27;;;;;;;1.63;0.90;;;18.90;53.40;;;;;;5065238;28;45133;-79
2022/12/31 08:40:00;;;;;;;0.90;0.90;;;18.90;53.40;;;;;;5065868;28;45224;-79
2022/12/31 08:42:30;;;;;;;0.90;0.90;;;19.00;53.50;;;;;;5065736;28;45559;-79
2022/12/31 08:45:01;;;;;;;0.95;0.95;;;19.00;53.40;;;;;;5065355;28;45264;-79
2022/12/31 08:47:33;;;;;;;1.20;1.10;;;19.00;53.50;;;;;;5065351;28;45272;-79
2022/12/31 08:50:00;;;;;;;1.15;1.05;;;19.00;53.40;;;;;;5065550;28;45164;-79
2022/12/31 08:52:29;;;;;;;1.10;1.00;;;19.00;53.50;;;;;;5065423;28;45444;-79
2022/12/31 08:54:56;;;;;;;0.82;0.82;;;19.00;53.40;;;;;;5065048;28;45714;-79
2022/12/31 08:57:26;;;;;;;0.75;0.75;;;19.00;53.50;;;;;;5065238;28;45235;-78
2022/12/31 09:00:04;;;;;;;1.42;1.10;;;19.00;53.40;;;;;;5065263;28;45289;-79
2022/12/31 09:02:47;;;;;;;0.90;0.90;;;19.00;53.40;;;;;;5065191;27;45464;-79
2022/12/31 09:05:17;;;;;;;0.85;0.85;;;19.00;53.40;;;;;;5064764;28;45485;-79
2022/12/31 09:07:49;;;;;;;1.20;1.10;;;19.00;53.40;;;;;;5064994;27;45239;-79
2022/12/31 09:10:18;;;;;;;0.98;0.98;;;19.00;53.40;;;;;;5065664;28;45175;-78
2022/12/31 09:12:48;;;;;;;1.15;0.98;;;19.10;53.40;;;;;;5065678;27;45189;-78
2022/12/31 09:15:17;;;;;;;0.93;0.93;;;19.00;53.40;;;;;;5064937;27;46755;-79
2022/12/31 09:17:45;;;;;;;0.95;0.93;;;19.00;53.40;;;;;;5064855;28;45216;-79
2022/12/31 09:20:17;;;;;;;1.20;1.10;;;19.10;53.40;;;;;;5064967;28;45251;-78
2022/12/31 09:22:46;;;;;;;1.10;1.10;;;19.10;53.40;;;;;;5065445;28;45317;-78
2022/12/31 09:25:14;;;;;;;0.80;0.80;;;19.10;53.40;;;;;;5064221;28;47129;-79
2022/12/31 09:27:44;;;;;;;0.88;0.82;;;19.10;53.40;;;;;;5063997;28;45254;-79
2022/12/31 09:30:11;;;;;;;1.00;1.00;;;19.10;53.40;;;;;;5065035;28;45130;-79
2022/12/31 09:32:41;;;;;;;1.00;1.00;;;19.10;53.40;;;;;;5064779;28;45472;-79
2022/12/31 09:35:13;;;;;;;0.90;0.90;;;19.10;53.30;;;;;;5064522;28;45207;-78
2022/12/31 09:37:45;;;;;;;0.90;0.90;;;19.10;53.30;;;;;;5064735;28;45365;-79
2022/12/31 09:40:58;;;;;;;0.90;0.90;;;19.20;53.30;;;;;;5064909;28;45357;-78
2022/12/31 09:44:02;;;;;;;0.90;0.90;;;19.20;53.20;;;;;;5028364;27;45174;-79
2022/12/31 09:47:07;;;;;;;0.70;0.70;;;19.20;53.30;;;;;;5064522;28;46424;-79
2022/12/31 09:50:03;;;;;;;0.80;0.80;;;19.20;53.20;;;;;;5064702;28;45169;-78
2022/12/31 09:52:33;;;;;;;0.80;0.80;;;19.30;53.20;;;;;;5064724;28;45290;-77
2022/12/31 09:55:05;;;;;;;0.85;0.85;;;19.30;53.20;;;;;;5064620;28;45252;-77
2022/12/31 09:57:38;;;;;;;0.70;0.70;;;19.30;53.10;;;;;;5064227;28;46687;-78
2022/12/31 10:00:09;;;;;;;1.00;0.98;;;19.30;53.10;;;;;;5064439;27;45190;-78
2022/12/31 10:02:58;;;;;;;0.60;0.60;;;19.30;53.10;;;;;;5064901;28;45259;-79
2022/12/31 10:05:46;;;;;;;1.00;1.00;;;19.30;53.00;;;;;;5065105;27;45176;-79
2022/12/31 10:08:17;;;;;;;1.25;0.90;;;19.40;53.00;;;;;;5064773;28;45753;-78
2022/12/31 10:10:54;;;;;;;1.17;1.08;;;19.40;53.10;;;;;;5064517;28;45134;-78
2022/12/31 10:13:41;;;;;;;0.80;0.80;;;19.40;53.00;;;;;;5064382;28;45308;-79
2022/12/31 10:16:27;;;;;;;0.80;0.80;;;19.50;53.70;;;;;;5063311;27;45390;-78
2022/12/31 10:19:16;;;;;;;0.90;0.90;;;19.50;53.00;;;;;;5046745;27;45496;-80
2022/12/31 10:21:48;;;;;;;0.80;0.80;;;19.50;52.90;;;;;;5064219;27;45222;-77
2022/12/31 10:24:34;;;;;;;2.13;0.75;;;19.60;53.00;;;;;;5064172;27;45336;-77
2022/12/31 10:27:40;;;;;;;0.80;0.80;;;19.60;52.90;;;;;;5064323;28;45230;-79
2022/12/31 10:30:13;;;;;;;1.55;0.80;;;19.60;52.90;;;;;;5015638;27;45454;-77
2022/12/31 10:32:43;;;;;;;0.90;0.75;;;19.70;52.90;;;;;;5063753;28;45334;-78
2022/12/31 10:35:15;;;;;;;0.88;0.88;;;19.70;52.80;;;;;;5064388;28;45209;-77
2022/12/31 10:37:44;;;;;;;1.95;0.90;;;19.70;52.80;;;;;;5064277;28;45245;-77
2022/12/31 10:40:20;;;;;;;0.80;0.80;;;19.70;52.70;;;;;;5064007;27;48116;-79
2022/12/31 10:43:10;;;;;;;1.20;0.80;;;19.80;52.70;;;;;;5063624;27;45297;-77
2022/12/31 10:46:10;;;;;;;0.80;0.80;;;19.80;52.70;;;;;;5063521;27;45286;-77
2022/12/31 10:49:14;;;;;;;1.30;1.20;;;19.80;52.60;;;;;;5060811;27;45467;-79
2022/12/31 10:52:15;;;;;;;2.00;0.80;;;19.90;52.60;;;;;;5063424;28;46695;-79
2022/12/31 10:55:15;;;;;;;0.70;0.70;;;19.90;52.50;;;;;;5063926;28;45221;-80
2022/12/31 10:58:14;;;;;;;0.80;0.80;;;20.00;52.50;;;;;;5058944;27;45446;-80
2022/12/31 11:00:45;;;;;;;1.25;0.77;;;20.00;52.40;;;;;;5063847;28;45456;-80
2022/12/31 11:03:36;;;;;;;0.57;0.57;;;20.00;52.30;;;;;;5063320;28;46683;-80
2022/12/31 11:06:42;;;;;;;0.70;0.70;;;20.00;52.20;;;;;;5063461;27;45181;-79
2022/12/31 11:09:45;;;;;;;4.07;0.85;;;20.20;52.20;;;;;;5063097;28;45159;-80
2022/12/31 11:12:21;;;;;;;0.60;0.60;;;20.20;52.10;;;;;;5038791;28;45256;-80
2022/12/31 11:15:15;;;;;;;0.60;0.60;;;20.20;52.10;;;;;;5063495;28;46400;-80
2022/12/31 11:17:48;;;;;;;0.60;0.60;;;20.20;52.00;;;;;;5062858;27;45225;-80
2022/12/31 11:20:46;;;;;;;1.50;0.80;;;20.30;52.00;;;;;;5063205;28;45305;-80
2022/12/31 11:23:21;;;;;;;0.60;0.60;;;20.30;52.00;;;;;;5057398;27;45177;-80
2022/12/31 11:25:54;;;;;;;0.52;0.52;;;20.40;51.90;;;;;;5063198;27;45577;-80
2022/12/31 11:28:33;;;;;;;0.60;0.60;;;20.40;52.00;;;;;;5066165;27;45298;-80
2022/12/31 11:31:14;;;;;;;0.60;0.60;;;20.40;51.90;;;;;;5066529;27;45155;-80
2022/12/31 11:33:53;;;;;;;0.65;0.65;;;20.50;51.80;;;;;;5066669;28;45321;-78
2022/12/31 11:36:25;;;;;;;0.70;0.70;;;20.50;51.80;;;;;;5066190;28;45238;-78
2022/12/31 11:38:53;;;;;;;0.60;0.60;;;20.50;51.80;;;;;;5066106;28;45214;-78
2022/12/31 11:41:23;;;;;;;0.60;0.60;;;20.50;51.90;;;;;;5066454;28;45148;-78
2022/12/31 11:43:53;;;;;;;0.90;0.90;;;20.50;52.00;;;;;;5066405;27;45223;-78
2022/12/31 11:46:43;;;;;;;0.57;0.57;;;20.50;52.10;;;;;;5066114;28;47428;-78
2022/12/31 11:49:30;;;;;;;2.17;0.70;;;20.50;52.00;;;;;;5061356;27;45415;-78
2022/12/31 11:52:16;;;;;;;0.55;0.55;;;20.60;52.00;;;;;;5066484;28;45236;-78
2022/12/31 11:54:57;;;;;;;0.60;0.60;;;20.50;52.10;;;;;;5066191;27;45323;-78
2022/12/31 11:57:26;;;;;;;0.85;0.80;;;20.50;52.20;;;;;;5063386;28;45231;-78
2022/12/31 11:59:55;;;;;;;0.57;0.57;;;20.50;52.10;;;;;;5066434;27;45252;-78
2022/12/31 12:02:27;;;;;;;0.63;0.63;;;20.50;52.20;;;;;;5067989;27;45308;-79
2022/12/31 12:04:55;;;;;;;0.50;0.50;;;20.50;52.20;;;;;;5067731;27;45125;-78
2022/12/31 12:07:23;;;;;;;0.60;0.60;;;20.50;52.20;;;;;;5066672;28;45409;-78
2022/12/31 12:09:49;;;;;;;0.57;0.57;;;20.50;52.20;;;;;;5067298;28;45289;-78
2022/12/31 12:12:16;;;;;;;0.80;0.80;;;20.50;52.30;;;;;;5068665;28;45381;-78
2022/12/31 12:14:45;;;;;;;0.52;0.52;;;20.50;52.40;;;;;;5066415;27;45476;-78
2022/12/31 12:17:14;;;;;;;0.70;0.70;;;20.50;52.40;;;;;;5067230;27;46947;-78
2022/12/31 12:19:43;;;;;;;0.55;0.55;;;20.50;52.40;;;;;;5065869;27;45255;-79
2022/12/31 12:22:11;;;;;;;0.70;0.70;;;20.50;52.40;;;;;;5065811;28;45267;-79
2022/12/31 12:24:38;;;;;;;0.77;0.75;;;20.50;52.40;;;;;;5065879;27;45248;-78
2022/12/31 12:27:05;;;;;;;0.60;0.60;;;20.50;52.30;;;;;;5064754;27;46803;-78
2022/12/31 12:29:33;;;;;;;0.50;0.50;;;20.50;52.30;;;;;;5065939;28;45309;-77
2022/12/31 12:32:00;;;;;;;0.65;0.50;;;20.50;52.40;;;;;;5065533;27;45174;-78
2022/12/31 12:34:29;;;;;;;1.52;0.60;;;20.50;52.50;;;;;;5065780;27;45267;-78
2022/12/31 12:36:56;;;;;;;0.50;0.50;;;20.50;52.40;;;;;;5065597;27;45233;-78
2022/12/31 12:39:25;;;;;;;0.50;0.50;;;20.40;52.40;;;;;;5064676;28;45212;-79
2022/12/31 12:42:03;;;;;;;0.60;0.60;;;20.40;52.50;;;;;;5065744;28;45276;-79
2022/12/31 12:44:30;;;;;;;0.60;0.60;;;20.40;52.60;;;;;;5065902;28;45285;-79
2022/12/31 12:46:57;;;;;;;0.68;0.68;;;20.40;52.50;;;;;;5065189;28;45483;-78
2022/12/31 12:49:25;;;;;;;0.70;0.70;;;20.40;52.50;;;;;;5065252;28;45202;-79
2022/12/31 12:52:09;;;;;;;0.60;0.60;;;20.40;52.50;;;;;;5065591;28;45277;-78
2022/12/31 12:54:42;;;;;;;0.60;0.60;;;20.40;52.50;;;;;;5065701;27;45453;-79
2022/12/31 12:57:13;;;;;;;0.55;0.55;;;20.40;52.60;;;;;;5065432;28;45248;-79
2022/12/31 13:00:01;;;;;;;0.60;0.60;;;20.40;52.60;;;;;;5065133;28;45266;-78
2022/12/31 13:02:47;;;;;;;0.60;0.60;;;20.40;52.50;;;;;;5065113;28;45269;-80
2022/12/31 13:05:20;;;;;;;0.70;0.70;;;20.40;52.60;;;;;;5065321;28;45653;-79
2022/12/31 13:07:51;;;;;;;0.50;0.50;;;20.40;52.60;;;;;;5065390;28;45281;-78
2022/12/31 13:10:27;;;;;;;0.60;0.60;;;20.40;52.60;;;;;;5065196;27;45304;-79
2022/12/31 13:12:57;;;;;;;0.50;0.50;;;20.40;52.70;;;;;;5065582;27;45336;-79
2022/12/31 13:15:26;;;;;;;0.57;0.57;;;20.40;52.70;;;;;;5065388;27;45241;-79
2022/12/31 13:18:01;;;;;;;0.40;0.40;;;20.40;52.70;;;;;;5065121;28;45471;-79